createdAt,value
2018-04-15T00:00:59.391Z,1010.52
2018-04-15T00:01:59.315Z,1010.51
2018-04-15T00:02:59.240Z,1010.51
2018-04-15T00:03:59.171Z,1010.47
2018-04-15T00:04:59.092Z,1010.50
2018-04-15T00:05:59.015Z,1010.45
2018-04-15T00:06:58.945Z,1010.50
2018-04-15T00:07:58.864Z,1010.53
2018-04-15T00:08:58.794Z,1010.42
2018-04-15T00:09:58.714Z,1010.43
2018-04-15T00:10:58.637Z,1010.46
2018-04-15T00:11:58.570Z,1010.46
2018-04-15T00:12:58.488Z,1010.41
2018-04-15T00:13:58.407Z,1010.45
2018-04-15T00:14:58.338Z,1010.44
2018-04-15T00:15:58.263Z,1010.40
2018-04-15T00:16:58.200Z,1010.37
2018-04-15T00:17:58.109Z,1010.42
2018-04-15T00:18:58.034Z,1010.40
2018-04-15T00:19:57.968Z,1010.44
2018-04-15T00:20:57.879Z,1010.40
2018-04-15T00:21:57.808Z,1010.38
2018-04-15T00:22:57.741Z,1010.42
2018-04-15T00:23:57.659Z,1010.36
2018-04-15T00:24:57.588Z,1010.34
2018-04-15T00:25:57.506Z,1010.36
2018-04-15T00:26:57.431Z,1010.37
2018-04-15T00:27:57.367Z,1010.35
2018-04-15T00:28:57.284Z,1010.37
2018-04-15T00:29:57.207Z,1010.32
2018-04-15T00:30:57.129Z,1010.36
2018-04-15T00:31:57.060Z,1010.32
2018-04-15T00:32:56.979Z,1010.33
2018-04-15T00:33:56.924Z,1010.28
2018-04-15T00:34:56.837Z,1010.28
2018-04-15T00:35:56.751Z,1010.24
2018-04-15T00:36:56.676Z,1010.24
2018-04-15T00:37:56.600Z,1010.28
2018-04-15T00:38:56.525Z,1010.23
2018-04-15T00:39:56.453Z,1010.24
2018-04-15T00:40:56.374Z,1010.23
2018-04-15T00:41:56.304Z,1010.22
2018-04-15T00:42:56.222Z,1010.26
2018-04-15T00:43:56.173Z,1010.24
2018-04-15T00:44:56.078Z,1010.27
2018-04-15T00:45:55.992Z,1010.23
2018-04-15T00:46:55.922Z,1010.25
2018-04-15T00:47:55.852Z,1010.24
2018-04-15T00:48:55.768Z,1010.19
2018-04-15T00:49:55.693Z,1010.21
2018-04-15T00:50:55.616Z,1010.25
2018-04-15T00:51:55.541Z,1010.21
2018-04-15T00:52:55.464Z,1010.20
2018-04-15T00:53:55.390Z,1010.20
2018-04-15T00:54:55.315Z,1010.22
2018-04-15T00:55:55.239Z,1010.21
2018-04-15T00:56:55.163Z,1010.22
2018-04-15T00:57:55.092Z,1010.21
2018-04-15T00:58:55.007Z,1010.21
2018-04-15T00:59:54.936Z,1010.20
2018-04-15T01:00:54.861Z,1010.21
2018-04-15T01:01:54.788Z,1010.21
2018-04-15T01:02:54.710Z,1010.21
2018-04-15T01:03:54.635Z,1010.25
2018-04-15T01:04:54.560Z,1010.21
2018-04-15T01:05:54.485Z,1010.22
2018-04-15T01:06:54.411Z,1010.19
2018-04-15T01:07:54.333Z,1010.23
2018-04-15T01:08:54.254Z,1010.18
2018-04-15T01:09:54.179Z,1010.17
2018-04-15T01:10:54.106Z,1010.16
2018-04-15T01:11:54.030Z,1010.09
2018-04-15T01:12:53.956Z,1010.13
2018-04-15T01:13:53.879Z,1010.08
2018-04-15T01:14:53.803Z,1010.09
2018-04-15T01:15:53.727Z,1010.11
2018-04-15T01:16:53.650Z,1010.11
2018-04-15T01:17:53.581Z,1010.09
2018-04-15T01:18:53.497Z,1010.09
2018-04-15T01:19:53.426Z,1010.08
2018-04-15T01:20:53.348Z,1010.10
2018-04-15T01:21:53.276Z,1010.06
2018-04-15T01:22:53.197Z,1010.07
2018-04-15T01:23:53.118Z,1010.06
2018-04-15T01:24:53.051Z,1010.07
2018-04-15T01:25:52.969Z,1010.07
2018-04-15T01:26:52.893Z,1010.07
2018-04-15T01:27:52.827Z,1010.08
2018-04-15T01:28:52.741Z,1010.09
2018-04-15T01:29:52.665Z,1010.04
2018-04-15T01:30:52.591Z,1010.07
2018-04-15T01:31:52.518Z,1010.04
2018-04-15T01:32:52.450Z,1010.06
2018-04-15T01:33:52.362Z,1010.04
2018-04-15T01:34:52.289Z,1010.02
2018-04-15T01:35:52.210Z,1010.04
2018-04-15T01:36:52.135Z,1010.01
2018-04-15T01:37:52.059Z,1010.03
2018-04-15T01:38:51.984Z,1010.00
2018-04-15T01:39:51.918Z,1010.00
2018-04-15T01:40:51.833Z,1010.05
2018-04-15T01:41:51.755Z,1010.02
2018-04-15T01:42:51.680Z,1010.03
2018-04-15T01:43:51.603Z,1010.01
2018-04-15T01:44:51.524Z,1010.02
2018-04-15T01:45:51.453Z,1010.01
2018-04-15T01:46:51.375Z,1010.00
2018-04-15T01:47:51.298Z,1009.98
2018-04-15T01:48:51.223Z,1010.00
2018-04-15T01:49:51.145Z,1010.03
2018-04-15T01:50:51.070Z,1010.00
2018-04-15T01:51:50.993Z,1010.03
2018-04-15T01:52:50.924Z,1010.03
2018-04-15T01:53:50.846Z,1010.02
2018-04-15T01:54:50.767Z,1010.01
2018-04-15T01:55:50.694Z,1009.99
2018-04-15T01:56:50.614Z,1010.00
2018-04-15T01:57:50.537Z,1010.03
2018-04-15T01:58:50.462Z,1009.99
2018-04-15T01:59:50.386Z,1009.97
2018-04-15T02:00:50.312Z,1009.96
2018-04-15T02:01:50.237Z,1009.99
2018-04-15T02:02:50.159Z,1009.99
2018-04-15T02:03:50.082Z,1009.96
2018-04-15T02:04:50.009Z,1009.92
2018-04-15T02:05:49.930Z,1009.91
2018-04-15T02:06:49.857Z,1009.89
2018-04-15T02:07:49.783Z,1009.92
2018-04-15T02:08:49.702Z,1009.90
2018-04-15T02:09:49.625Z,1009.90
2018-04-15T02:10:49.550Z,1009.90
2018-04-15T02:11:49.476Z,1009.90
2018-04-15T02:12:49.400Z,1009.89
2018-04-15T02:13:49.322Z,1009.89
2018-04-15T02:14:49.246Z,1009.92
2018-04-15T02:15:49.166Z,1009.93
2018-04-15T02:16:49.094Z,1009.97
2018-04-15T02:17:49.018Z,1009.93
2018-04-15T02:18:48.941Z,1009.91
2018-04-15T02:19:48.868Z,1009.91
2018-04-15T02:20:48.791Z,1009.87
2018-04-15T02:21:48.725Z,1009.85
2018-04-15T02:22:48.639Z,1009.83
2018-04-15T02:23:48.567Z,1009.81
2018-04-15T02:24:48.488Z,1009.77
2018-04-15T02:25:48.405Z,1009.78
2018-04-15T02:26:48.332Z,1009.77
2018-04-15T02:27:48.257Z,1009.76
2018-04-15T02:28:48.182Z,1009.72
2018-04-15T02:29:48.158Z,1009.76
2018-04-15T02:30:48.031Z,1009.75
2018-04-15T02:31:47.952Z,1009.74
2018-04-15T02:32:47.892Z,1009.73
2018-04-15T02:33:47.800Z,1009.74
2018-04-15T02:34:47.723Z,1009.71
2018-04-15T02:35:47.647Z,1009.70
2018-04-15T02:36:47.570Z,1009.68
2018-04-15T02:37:47.494Z,1009.67
2018-04-15T02:38:47.418Z,1009.63
2018-04-15T02:39:47.341Z,1009.69
2018-04-15T02:40:47.300Z,1009.67
2018-04-15T02:41:47.191Z,1009.70
2018-04-15T02:42:47.119Z,1009.68
2018-04-15T02:43:47.036Z,1009.67
2018-04-15T02:44:46.961Z,1009.68
2018-04-15T02:45:46.887Z,1009.61
2018-04-15T02:46:46.808Z,1009.64
2018-04-15T02:47:46.737Z,1009.58
2018-04-15T02:48:46.657Z,1009.60
2018-04-15T02:49:46.584Z,1009.61
2018-04-15T02:50:46.504Z,1009.61
2018-04-15T02:51:46.431Z,1009.61
2018-04-15T02:52:46.350Z,1009.58
2018-04-15T02:53:46.277Z,1009.54
2018-04-15T02:54:46.198Z,1009.56
2018-04-15T02:55:46.122Z,1009.53
2018-04-15T02:56:46.043Z,1009.52
2018-04-15T02:57:45.973Z,1009.52
2018-04-15T02:58:45.893Z,1009.50
2018-04-15T02:59:45.816Z,1009.47
2018-04-15T03:00:45.740Z,1009.48
2018-04-15T03:01:45.665Z,1009.48
2018-04-15T03:02:45.588Z,1009.47
2018-04-15T03:03:45.513Z,1009.49
2018-04-15T03:04:45.434Z,1009.47
2018-04-15T03:05:45.357Z,1009.48
2018-04-15T03:06:45.283Z,1009.44
2018-04-15T03:07:45.205Z,1009.43
2018-04-15T03:08:45.133Z,1009.41
2018-04-15T03:09:45.055Z,1009.41
2018-04-15T03:10:44.975Z,1009.41
2018-04-15T03:11:44.900Z,1009.45
2018-04-15T03:12:44.826Z,1009.44
2018-04-15T03:13:44.753Z,1009.44
2018-04-15T03:14:44.672Z,1009.45
2018-04-15T03:15:44.601Z,1009.46
2018-04-15T03:16:44.516Z,1009.43
2018-04-15T03:17:44.440Z,1009.43
2018-04-15T03:18:44.367Z,1009.38
2018-04-15T03:19:44.296Z,1009.38
2018-04-15T03:20:44.213Z,1009.37
2018-04-15T03:21:44.136Z,1009.31
2018-04-15T03:22:44.057Z,1009.38
2018-04-15T03:23:43.983Z,1009.36
2018-04-15T03:24:43.920Z,1009.37
2018-04-15T03:25:43.828Z,1009.42
2018-04-15T03:26:43.753Z,1009.40
2018-04-15T03:27:43.679Z,1009.40
2018-04-15T03:28:43.602Z,1009.39
2018-04-15T03:29:43.523Z,1009.38
2018-04-15T03:30:43.447Z,1009.36
2018-04-15T03:31:43.370Z,1009.33
2018-04-15T03:32:43.306Z,1009.34
2018-04-15T03:33:43.218Z,1009.31
2018-04-15T03:34:43.141Z,1009.37
2018-04-15T03:35:43.068Z,1009.41
2018-04-15T03:36:42.991Z,1009.35
2018-04-15T03:37:42.911Z,1009.39
2018-04-15T03:38:42.833Z,1009.38
2018-04-15T03:39:42.758Z,1009.36
2018-04-15T03:40:42.680Z,1009.36
2018-04-15T03:41:42.606Z,1009.33
2018-04-15T03:42:42.528Z,1009.39
2018-04-15T03:43:42.456Z,1009.32
2018-04-15T03:44:42.371Z,1009.32
2018-04-15T03:45:42.302Z,1009.31
2018-04-15T03:46:42.221Z,1009.29
2018-04-15T03:47:42.145Z,1009.28
2018-04-15T03:48:42.076Z,1009.26
2018-04-15T03:49:41.992Z,1009.29
2018-04-15T03:50:41.915Z,1009.23
2018-04-15T03:51:41.842Z,1009.22
2018-04-15T03:52:41.763Z,1009.22
2018-04-15T03:53:41.713Z,1009.16
2018-04-15T03:54:41.610Z,1009.19
2018-04-15T03:55:41.535Z,1009.18
2018-04-15T03:56:41.463Z,1009.17
2018-04-15T03:57:41.383Z,1009.18
2018-04-15T03:58:41.308Z,1009.15
2018-04-15T03:59:41.238Z,1009.18
2018-04-15T04:00:41.153Z,1009.17
2018-04-15T04:01:41.076Z,1009.23
2018-04-15T04:02:40.998Z,1009.22
2018-04-15T04:03:40.922Z,1009.24
2018-04-15T04:04:40.858Z,1009.25
2018-04-15T04:05:40.763Z,1009.22
2018-04-15T04:06:40.694Z,1009.25
2018-04-15T04:07:40.620Z,1009.24
2018-04-15T04:08:40.539Z,1009.30
2018-04-15T04:09:40.460Z,1009.28
2018-04-15T04:10:40.383Z,1009.29
2018-04-15T04:11:40.311Z,1009.29
2018-04-15T04:12:40.232Z,1009.29
2018-04-15T04:13:40.155Z,1009.31
2018-04-15T04:14:40.083Z,1009.30
2018-04-15T04:15:40.001Z,1009.32
2018-04-15T04:16:39.925Z,1009.33
2018-04-15T04:17:39.849Z,1009.34
2018-04-15T04:18:39.772Z,1009.34
2018-04-15T04:19:39.696Z,1009.35
2018-04-15T04:20:39.628Z,1009.38
2018-04-15T04:21:39.538Z,1009.38
2018-04-15T04:22:39.464Z,1009.35
2018-04-15T04:23:39.396Z,1009.38
2018-04-15T04:24:39.314Z,1009.38
2018-04-15T04:25:39.297Z,1009.33
2018-04-15T04:26:39.160Z,1009.35
2018-04-15T04:27:39.084Z,1009.31
2018-04-15T04:28:39.008Z,1009.38
2018-04-15T04:29:38.930Z,1009.42
2018-04-15T04:30:38.859Z,1009.46
2018-04-15T04:31:38.778Z,1009.43
2018-04-15T04:32:38.701Z,1009.41
2018-04-15T04:33:38.624Z,1009.44
2018-04-15T04:34:38.548Z,1009.42
2018-04-15T04:35:38.470Z,1009.40
2018-04-15T04:36:38.419Z,1009.38
2018-04-15T04:37:38.315Z,1009.39
2018-04-15T04:38:38.239Z,1009.38
2018-04-15T04:39:38.169Z,1009.41
2018-04-15T04:40:38.089Z,1009.38
2018-04-15T04:41:38.012Z,1009.34
2018-04-15T04:42:37.935Z,1009.36
2018-04-15T04:43:37.852Z,1009.37
2018-04-15T04:44:37.784Z,1009.35
2018-04-15T04:45:37.704Z,1009.34
2018-04-15T04:46:37.628Z,1009.32
2018-04-15T04:47:37.553Z,1009.33
2018-04-15T04:48:37.481Z,1009.31
2018-04-15T04:49:37.399Z,1009.31
2018-04-15T04:50:37.329Z,1009.30
2018-04-15T04:51:37.277Z,1009.30
2018-04-15T04:52:37.176Z,1009.26
2018-04-15T04:53:37.090Z,1009.22
2018-04-15T04:54:37.015Z,1009.26
2018-04-15T04:55:36.945Z,1009.27
2018-04-15T04:56:36.863Z,1009.26
2018-04-15T04:57:36.783Z,1009.24
2018-04-15T04:58:36.709Z,1009.23
2018-04-15T04:59:36.633Z,1009.21
2018-04-15T05:00:36.555Z,1009.25
2018-04-15T05:01:36.478Z,1009.24
2018-04-15T05:02:36.407Z,1009.26
2018-04-15T05:03:36.368Z,1009.22
2018-04-15T05:04:36.251Z,1009.20
2018-04-15T05:05:36.174Z,1009.15
2018-04-15T05:06:36.095Z,1009.18
2018-04-15T05:07:36.082Z,1009.16
2018-04-15T05:08:35.944Z,1009.12
2018-04-15T05:09:35.873Z,1009.11
2018-04-15T05:10:35.789Z,1009.11
2018-04-15T05:11:35.713Z,1009.11
2018-04-15T05:12:35.636Z,1009.08
2018-04-15T05:13:35.560Z,1009.05
2018-04-15T05:14:35.481Z,1009.06
2018-04-15T05:15:35.409Z,1009.06
2018-04-15T05:16:35.334Z,1009.03
2018-04-15T05:17:35.253Z,1009.03
2018-04-15T05:18:35.180Z,1009.03
2018-04-15T05:19:35.100Z,1009.03
2018-04-15T05:20:35.021Z,1009.02
2018-04-15T05:21:34.950Z,1009.09
2018-04-15T05:22:34.872Z,1009.04
2018-04-15T05:23:34.793Z,1009.06
2018-04-15T05:24:34.722Z,1009.01
2018-04-15T05:25:34.642Z,1009.02
2018-04-15T05:26:34.565Z,1008.99
2018-04-15T05:27:34.486Z,1008.96
2018-04-15T05:28:34.424Z,1008.95
2018-04-15T05:29:34.338Z,1008.93
2018-04-15T05:30:34.260Z,1008.92
2018-04-15T05:31:34.181Z,1008.95
2018-04-15T05:32:34.137Z,1008.97
2018-04-15T05:33:34.025Z,1008.98
2018-04-15T05:34:33.951Z,1009.03
2018-04-15T05:35:33.873Z,1009.04
2018-04-15T05:36:33.797Z,1009.01
2018-04-15T05:37:33.766Z,1009.04
2018-04-15T05:38:33.643Z,1009.05
2018-04-15T05:39:33.569Z,1009.05
2018-04-15T05:40:33.493Z,1009.03
2018-04-15T05:41:33.413Z,1009.01
2018-04-15T05:42:33.338Z,1009.01
2018-04-15T05:43:33.260Z,1009.00
2018-04-15T05:44:33.183Z,1009.01
2018-04-15T05:45:33.109Z,1008.98
2018-04-15T05:46:33.030Z,1008.99
2018-04-15T05:47:32.957Z,1008.93
2018-04-15T05:48:32.877Z,1008.93
2018-04-15T05:49:32.799Z,1008.90
2018-04-15T05:50:32.722Z,1008.90
2018-04-15T05:51:32.653Z,1008.89
2018-04-15T05:52:32.568Z,1008.90
2018-04-15T05:53:32.494Z,1008.89
2018-04-15T05:54:32.417Z,1008.88
2018-04-15T05:55:32.341Z,1008.83
2018-04-15T05:56:32.266Z,1008.82
2018-04-15T05:57:32.187Z,1008.81
2018-04-15T05:58:32.110Z,1008.79
2018-04-15T05:59:32.085Z,1008.77
2018-04-15T06:00:31.965Z,1008.73
2018-04-15T06:01:31.880Z,1008.72
2018-04-15T06:02:31.805Z,1008.69
2018-04-15T06:03:31.727Z,1008.69
2018-04-15T06:04:31.655Z,1008.67
2018-04-15T06:05:31.575Z,1008.64
2018-04-15T06:06:31.498Z,1008.61
2018-04-15T06:07:31.421Z,1008.63
2018-04-15T06:08:31.348Z,1008.64
2018-04-15T06:09:31.266Z,1008.59
2018-04-15T06:10:31.190Z,1008.57
2018-04-15T06:11:31.112Z,1008.56
2018-04-15T06:12:31.040Z,1008.49
2018-04-15T06:13:30.959Z,1008.46
2018-04-15T06:14:30.887Z,1008.44
2018-04-15T06:15:30.808Z,1008.49
2018-04-15T06:16:30.735Z,1008.48
2018-04-15T06:17:30.655Z,1008.47
2018-04-15T06:18:30.580Z,1008.48
2018-04-15T06:19:30.532Z,1008.50
2018-04-15T06:20:30.429Z,1008.46
2018-04-15T06:21:30.348Z,1008.46
2018-04-15T06:22:30.272Z,1008.41
2018-04-15T06:23:30.195Z,1008.34
2018-04-15T06:24:30.123Z,1008.31
2018-04-15T06:25:30.042Z,1008.33
2018-04-15T06:26:29.972Z,1008.30
2018-04-15T06:27:29.889Z,1008.28
2018-04-15T06:28:29.815Z,1008.26
2018-04-15T06:29:29.736Z,1008.25
2018-04-15T06:30:29.664Z,1008.23
2018-04-15T06:31:29.583Z,1008.23
2018-04-15T06:32:29.506Z,1008.21
2018-04-15T06:33:29.430Z,1008.24
2018-04-15T06:34:29.356Z,1008.21
2018-04-15T06:35:29.276Z,1008.19
2018-04-15T06:36:29.203Z,1008.23
2018-04-15T06:37:29.127Z,1008.21
2018-04-15T06:38:29.047Z,1008.25
2018-04-15T06:39:28.971Z,1008.24
2018-04-15T06:40:28.896Z,1008.29
2018-04-15T06:41:28.816Z,1008.31
2018-04-15T06:42:28.742Z,1008.29
2018-04-15T06:43:28.665Z,1008.27
2018-04-15T06:44:28.589Z,1008.31
2018-04-15T06:45:28.512Z,1008.34
2018-04-15T06:46:28.436Z,1008.27
2018-04-15T06:47:28.361Z,1008.27
2018-04-15T06:48:28.284Z,1008.25
2018-04-15T06:49:28.210Z,1008.22
2018-04-15T06:50:28.128Z,1008.21
2018-04-15T06:51:28.055Z,1008.23
2018-04-15T06:52:27.979Z,1008.18
2018-04-15T06:53:27.900Z,1008.13
2018-04-15T06:54:27.824Z,1008.16
2018-04-15T06:55:27.751Z,1008.10
2018-04-15T06:56:27.679Z,1008.14
2018-04-15T06:57:27.594Z,1008.13
2018-04-15T06:58:27.522Z,1008.12
2018-04-15T06:59:27.443Z,1008.06
2018-04-15T07:00:27.366Z,1008.03
2018-04-15T07:01:27.341Z,1008.07
2018-04-15T07:02:27.218Z,1008.07
2018-04-15T07:03:27.147Z,1008.05
2018-04-15T07:04:27.062Z,1008.11
2018-04-15T07:05:26.984Z,1008.06
2018-04-15T07:06:26.908Z,1008.06
2018-04-15T07:07:26.834Z,1008.03
2018-04-15T07:08:26.757Z,1007.99
2018-04-15T07:09:26.680Z,1007.96
2018-04-15T07:10:26.609Z,1007.94
2018-04-15T07:11:26.529Z,1007.93
2018-04-15T07:12:26.456Z,1007.90
2018-04-15T07:13:26.378Z,1007.92
2018-04-15T07:14:26.298Z,1007.94
2018-04-15T07:15:26.221Z,1007.90
2018-04-15T07:16:26.203Z,1007.91
2018-04-15T07:17:26.079Z,1007.93
2018-04-15T07:18:25.998Z,1007.88
2018-04-15T07:19:25.922Z,1007.87
2018-04-15T07:20:25.847Z,1007.92
2018-04-15T07:21:25.765Z,1007.89
2018-04-15T07:22:25.689Z,1007.89
2018-04-15T07:23:25.613Z,1007.84
2018-04-15T07:24:25.539Z,1007.87
2018-04-15T07:25:25.458Z,1007.84
2018-04-15T07:26:25.383Z,1007.84
2018-04-15T07:27:25.311Z,1007.82
2018-04-15T07:28:25.243Z,1007.80
2018-04-15T07:29:25.156Z,1007.80
2018-04-15T07:30:25.103Z,1007.77
2018-04-15T07:31:25.006Z,1007.74
2018-04-15T07:32:24.929Z,1007.75
2018-04-15T07:33:24.854Z,1007.73
2018-04-15T07:34:24.779Z,1007.77
2018-04-15T07:35:24.706Z,1007.75
2018-04-15T07:36:24.669Z,1007.72
2018-04-15T07:37:24.546Z,1007.76
2018-04-15T07:38:24.472Z,1007.77
2018-04-15T07:39:24.396Z,1007.73
2018-04-15T07:40:24.320Z,1007.75
2018-04-15T07:41:24.257Z,1007.80
2018-04-15T07:42:24.168Z,1007.76
2018-04-15T07:43:24.101Z,1007.80
2018-04-15T07:44:24.176Z,1007.80
2018-04-15T07:45:23.939Z,1007.81
2018-04-15T07:46:23.866Z,1007.79
2018-04-15T07:47:23.790Z,1007.76
2018-04-15T07:48:23.716Z,1007.77
2018-04-15T07:49:23.643Z,1007.81
2018-04-15T07:50:23.565Z,1007.80
2018-04-15T07:51:23.488Z,1007.81
2018-04-15T07:52:23.407Z,1007.79
2018-04-15T07:53:23.333Z,1007.77
2018-04-15T07:54:23.259Z,1007.77
2018-04-15T07:55:23.184Z,1007.79
2018-04-15T07:56:23.105Z,1007.78
2018-04-15T07:57:23.038Z,1007.77
2018-04-15T07:58:22.956Z,1007.76
2018-04-15T07:59:22.886Z,1007.70
2018-04-15T08:00:22.807Z,1007.70
2018-04-15T08:01:22.730Z,1007.72
2018-04-15T08:02:22.703Z,1007.72
2018-04-15T08:03:22.581Z,1007.75
2018-04-15T08:04:22.506Z,1007.68
2018-04-15T08:05:22.434Z,1007.72
2018-04-15T08:06:22.354Z,1007.72
2018-04-15T08:07:22.275Z,1007.72
2018-04-15T08:08:22.206Z,1007.72
2018-04-15T08:09:22.137Z,1007.72
2018-04-15T08:10:22.056Z,1007.73
2018-04-15T08:11:21.990Z,1007.74
2018-04-15T08:12:21.905Z,1007.72
2018-04-15T08:13:21.831Z,1007.70
2018-04-15T08:14:21.761Z,1007.70
2018-04-15T08:15:21.684Z,1007.71
2018-04-15T08:16:21.616Z,1007.70
2018-04-15T08:17:21.538Z,1007.71
2018-04-15T08:18:21.467Z,1007.72
2018-04-15T08:19:21.388Z,1007.72
2018-04-15T08:20:21.314Z,1007.73
2018-04-15T08:21:21.240Z,1007.75
2018-04-15T08:22:21.165Z,1007.80
2018-04-15T08:23:21.096Z,1007.77
2018-04-15T08:24:21.017Z,1007.80
2018-04-15T08:25:20.945Z,1007.77
2018-04-15T08:26:20.869Z,1007.76
2018-04-15T08:27:20.797Z,1007.83
2018-04-15T08:28:20.723Z,1007.76
2018-04-15T08:29:20.649Z,1007.74
2018-04-15T08:30:20.579Z,1007.79
2018-04-15T08:31:20.503Z,1007.80
2018-04-15T08:32:20.429Z,1007.77
2018-04-15T08:33:20.356Z,1007.79
2018-04-15T08:34:20.282Z,1007.80
2018-04-15T08:35:20.209Z,1007.76
2018-04-15T08:36:20.137Z,1007.74
2018-04-15T08:37:20.064Z,1007.74
2018-04-15T08:38:19.993Z,1007.79
2018-04-15T08:39:19.922Z,1007.74
2018-04-15T08:40:19.847Z,1007.74
2018-04-15T08:41:19.774Z,1007.71
2018-04-15T08:42:19.703Z,1007.69
2018-04-15T08:43:19.671Z,1007.74
2018-04-15T08:44:19.558Z,1007.66
2018-04-15T08:45:19.490Z,1007.68
2018-04-15T08:46:19.416Z,1007.68
2018-04-15T08:47:19.358Z,1007.66
2018-04-15T08:48:19.273Z,1007.69
2018-04-15T08:49:19.202Z,1007.64
2018-04-15T08:50:19.132Z,1007.69
2018-04-15T08:51:19.059Z,1007.71
2018-04-15T08:52:18.988Z,1007.65
2018-04-15T08:53:18.915Z,1007.66
2018-04-15T08:54:18.846Z,1007.70
2018-04-15T08:55:18.773Z,1007.70
2018-04-15T08:56:18.706Z,1007.66
2018-04-15T08:57:18.630Z,1007.67
2018-04-15T08:58:18.559Z,1007.65
2018-04-15T08:59:18.489Z,1007.62
2018-04-15T09:00:18.417Z,1007.59
2018-04-15T09:01:18.347Z,1007.57
2018-04-15T09:02:18.274Z,1007.54
2018-04-15T09:03:18.203Z,1007.56
2018-04-15T09:04:18.132Z,1007.55
2018-04-15T09:05:18.063Z,1007.53
2018-04-15T09:06:18.001Z,1007.50
2018-04-15T09:07:17.922Z,1007.48
2018-04-15T09:08:17.853Z,1007.49
2018-04-15T09:09:17.784Z,1007.55
2018-04-15T09:10:17.714Z,1007.52
2018-04-15T09:11:17.645Z,1007.56
2018-04-15T09:12:17.579Z,1007.58
2018-04-15T09:13:17.507Z,1007.52
2018-04-15T09:14:17.437Z,1007.53
2018-04-15T09:15:17.370Z,1007.55
2018-04-15T09:16:17.304Z,1007.49
2018-04-15T09:17:17.271Z,1007.53
2018-04-15T09:18:17.213Z,1007.55
2018-04-15T09:19:17.095Z,1007.49
2018-04-15T09:20:17.029Z,1007.48
2018-04-15T09:21:16.962Z,1007.53
2018-04-15T09:22:16.893Z,1007.52
2018-04-15T09:23:16.848Z,1007.43
2018-04-15T09:24:16.756Z,1007.46
2018-04-15T09:25:16.688Z,1007.45
2018-04-15T09:26:16.621Z,1007.48
2018-04-15T09:27:16.552Z,1007.44
2018-04-15T09:28:16.487Z,1007.40
2018-04-15T09:29:16.421Z,1007.34
2018-04-15T09:30:16.355Z,1007.40
2018-04-15T09:31:16.282Z,1007.35
2018-04-15T09:32:16.216Z,1007.33
2018-04-15T09:33:16.150Z,1007.37
2018-04-15T09:34:16.078Z,1007.37
2018-04-15T09:35:16.012Z,1007.35
2018-04-15T09:36:15.946Z,1007.38
2018-04-15T09:37:15.875Z,1007.29
2018-04-15T09:38:15.811Z,1007.31
2018-04-15T09:39:15.742Z,1007.33
2018-04-15T09:40:15.674Z,1007.41
2018-04-15T09:41:15.607Z,1007.36
2018-04-15T09:42:15.543Z,1007.40
2018-04-15T09:43:15.471Z,1007.32
2018-04-15T09:44:15.415Z,1007.32
2018-04-15T09:45:15.342Z,1007.28
2018-04-15T09:46:15.275Z,1007.23
2018-04-15T09:47:15.210Z,1007.35
2018-04-15T09:48:15.148Z,1007.39
2018-04-15T09:49:15.080Z,1007.32
2018-04-15T09:50:15.014Z,1007.29
2018-04-15T09:51:14.949Z,1007.31
2018-04-15T09:52:14.882Z,1007.32
2018-04-15T09:53:14.817Z,1007.31
2018-04-15T09:54:14.752Z,1007.31
2018-04-15T09:55:14.686Z,1007.35
2018-04-15T09:56:14.625Z,1007.31
2018-04-15T09:57:14.558Z,1007.20
2018-04-15T09:58:14.499Z,1007.26
2018-04-15T09:59:14.446Z,1007.27
2018-04-15T10:00:14.369Z,1007.23
2018-04-15T10:01:14.313Z,1007.33
2018-04-15T10:02:14.239Z,1007.36
2018-04-15T10:03:14.176Z,1007.32
2018-04-15T10:04:14.113Z,1007.35
2018-04-15T10:05:14.050Z,1007.33
2018-04-15T10:06:13.996Z,1007.39
2018-04-15T10:07:13.923Z,1007.37
2018-04-15T10:08:13.868Z,1007.40
2018-04-15T10:09:13.795Z,1007.42
2018-04-15T10:10:13.736Z,1007.44
2018-04-15T10:11:13.669Z,1007.35
2018-04-15T10:12:13.610Z,1007.36
2018-04-15T10:13:13.551Z,1007.34
2018-04-15T10:14:13.482Z,1007.33
2018-04-15T10:15:13.419Z,1007.36
2018-04-15T10:16:13.355Z,1007.32
2018-04-15T10:17:13.294Z,1007.41
2018-04-15T10:18:13.232Z,1007.36
2018-04-15T10:19:13.171Z,1007.29
2018-04-15T10:20:13.108Z,1007.33
2018-04-15T10:21:13.045Z,1007.32
2018-04-15T10:22:12.983Z,1007.28
2018-04-15T10:23:12.925Z,1007.23
2018-04-15T10:24:12.917Z,1007.20
2018-04-15T10:25:12.798Z,1007.21
2018-04-15T10:26:12.738Z,1007.22
2018-04-15T10:27:12.673Z,1007.25
2018-04-15T10:28:12.613Z,1007.24
2018-04-15T10:29:12.552Z,1007.26
2018-04-15T10:30:12.493Z,1007.20
2018-04-15T10:31:12.428Z,1007.13
2018-04-15T10:32:12.371Z,1007.08
2018-04-15T10:33:12.306Z,1007.23
2018-04-15T10:34:12.247Z,1007.17
2018-04-15T10:35:12.184Z,1007.17
2018-04-15T10:36:12.128Z,1007.19
2018-04-15T10:37:12.062Z,1007.12
2018-04-15T10:38:12.003Z,1007.13
2018-04-15T10:39:11.945Z,1007.14
2018-04-15T10:40:11.883Z,1007.13
2018-04-15T10:41:11.823Z,1007.02
2018-04-15T10:42:11.761Z,1007.06
2018-04-15T10:43:11.702Z,1007.13
2018-04-15T10:44:11.642Z,1007.12
2018-04-15T10:45:11.579Z,1007.04
2018-04-15T10:46:11.516Z,1007.01
2018-04-15T10:47:11.454Z,1007.02
2018-04-15T10:48:11.394Z,1006.98
2018-04-15T10:49:11.330Z,1007.04
2018-04-15T10:50:11.269Z,1007.05
2018-04-15T10:51:11.206Z,1007.03
2018-04-15T10:52:11.147Z,1007.07
2018-04-15T10:53:11.080Z,1007.02
2018-04-15T10:54:11.016Z,1007.01
2018-04-15T10:55:10.952Z,1006.97
2018-04-15T10:56:10.891Z,1006.92
2018-04-15T10:57:10.826Z,1006.92
2018-04-15T10:58:10.765Z,1006.87
2018-04-15T10:59:10.702Z,1006.84
2018-04-15T11:00:10.636Z,1006.85
2018-04-15T11:01:10.571Z,1006.86
2018-04-15T11:02:10.513Z,1006.89
2018-04-15T11:03:10.445Z,1006.91
2018-04-15T11:04:10.387Z,1006.88
2018-04-15T11:05:10.321Z,1006.83
2018-04-15T11:06:10.253Z,1006.83
2018-04-15T11:07:10.188Z,1006.77
2018-04-15T11:08:10.121Z,1006.83
2018-04-15T11:09:10.057Z,1006.80
2018-04-15T11:10:09.993Z,1006.75
2018-04-15T11:11:09.928Z,1006.76
2018-04-15T11:12:09.862Z,1006.76
2018-04-15T11:13:09.796Z,1006.77
2018-04-15T11:14:09.788Z,1006.78
2018-04-15T11:15:09.663Z,1006.72
2018-04-15T11:16:09.596Z,1006.67
2018-04-15T11:17:09.529Z,1006.67
2018-04-15T11:18:09.461Z,1006.65
2018-04-15T11:19:09.393Z,1006.64
2018-04-15T11:20:09.326Z,1006.64
2018-04-15T11:21:09.257Z,1006.68
2018-04-15T11:22:09.191Z,1006.80
2018-04-15T11:23:09.122Z,1006.84
2018-04-15T11:24:09.055Z,1006.86
2018-04-15T11:25:08.986Z,1006.84
2018-04-15T11:26:08.919Z,1006.81
2018-04-15T11:27:08.852Z,1006.79
2018-04-15T11:28:08.786Z,1006.79
2018-04-15T11:29:08.718Z,1006.77
2018-04-15T11:30:08.656Z,1006.72
2018-04-15T11:31:08.588Z,1006.81
2018-04-15T11:32:08.523Z,1006.82
2018-04-15T11:33:08.457Z,1006.80
2018-04-15T11:34:08.393Z,1006.61
2018-04-15T11:35:08.332Z,1006.75
2018-04-15T11:36:08.266Z,1006.79
2018-04-15T11:37:08.202Z,1006.80
2018-04-15T11:38:08.140Z,1006.81
2018-04-15T11:39:08.078Z,1006.81
2018-04-15T11:40:08.015Z,1006.83
2018-04-15T11:41:07.955Z,1006.78
2018-04-15T11:42:07.895Z,1006.75
2018-04-15T11:43:07.833Z,1006.65
2018-04-15T11:44:07.772Z,1006.57
2018-04-15T11:45:07.763Z,1006.52
2018-04-15T11:46:07.652Z,1006.57
2018-04-15T11:47:07.592Z,1006.64
2018-04-15T11:48:07.531Z,1006.61
2018-04-15T11:49:07.469Z,1006.60
2018-04-15T11:50:07.417Z,1006.63
2018-04-15T11:51:07.351Z,1006.46
2018-04-15T11:52:07.287Z,1006.46
2018-04-15T11:53:07.228Z,1006.42
2018-04-15T11:54:07.163Z,1006.36
2018-04-15T11:55:07.104Z,1006.35
2018-04-15T11:56:07.041Z,1006.34
2018-04-15T11:57:06.980Z,1006.35
2018-04-15T11:58:06.917Z,1006.40
2018-04-15T11:59:06.855Z,1006.30
2018-04-15T12:00:06.794Z,1006.31
2018-04-15T12:01:06.733Z,1006.27
2018-04-15T12:02:06.672Z,1006.26
2018-04-15T12:03:06.602Z,1006.27
2018-04-15T12:04:06.538Z,1006.22
2018-04-15T12:05:06.473Z,1006.26